createdAt,value
2023-03-22T05:45:42.058Z,8.98
2023-03-22T05:46:42.904Z,8.95
2023-03-22T05:47:42.927Z,8.95
2023-03-22T05:48:42.847Z,8.86
2023-03-22T05:49:42.833Z,8.89
2023-03-22T05:50:42.837Z,8.98
2023-03-22T05:51:42.810Z,9.04
2023-03-22T05:52:42.828Z,9.14
2023-03-22T05:53:42.805Z,9.20
2023-03-22T05:54:42.771Z,9.23
2023-03-22T05:55:42.766Z,9.29
2023-03-22T05:56:42.758Z,9.38
2023-03-22T05:57:42.795Z,9.42
2023-03-22T05:58:42.767Z,9.47
2023-03-22T05:59:42.755Z,9.50
2023-03-22T06:00:42.730Z,9.53
2023-03-22T06:01:42.748Z,9.64
2023-03-22T06:02:42.782Z,9.69
2023-03-22T06:03:42.694Z,9.72
2023-03-22T06:04:42.668Z,9.78
2023-03-22T06:05:42.691Z,9.83
2023-03-22T06:06:42.650Z,9.83
2023-03-22T06:07:42.635Z,9.86
2023-03-22T06:08:42.655Z,9.94
2023-03-22T06:09:42.643Z,10.01
2023-03-22T06:10:43.072Z,10.05
2023-03-22T06:11:42.669Z,10.07
2023-03-22T06:12:42.595Z,10.09
2023-03-22T06:13:42.634Z,10.14
2023-03-22T06:14:42.556Z,10.14
2023-03-22T06:15:42.611Z,10.22
2023-03-22T06:16:42.580Z,10.22
2023-03-22T06:17:42.581Z,10.25
2023-03-22T06:18:42.524Z,10.26
2023-03-22T06:19:42.548Z,10.26
2023-03-22T06:20:42.532Z,10.32
2023-03-22T06:21:42.505Z,10.32
2023-03-22T06:22:42.494Z,10.41
2023-03-22T06:23:42.475Z,10.34
2023-03-22T06:24:42.462Z,10.45
2023-03-22T06:25:42.440Z,10.51
2023-03-22T06:26:42.440Z,10.55
2023-03-22T06:27:42.454Z,10.60
2023-03-22T06:28:42.405Z,10.55
2023-03-22T06:29:42.410Z,10.59
2023-03-22T06:30:42.669Z,10.60
2023-03-22T06:31:42.409Z,10.63
2023-03-22T06:32:42.374Z,10.61
2023-03-22T06:33:42.378Z,10.63
2023-03-22T06:34:42.343Z,10.68
2023-03-22T06:35:42.390Z,10.68
2023-03-22T06:36:42.331Z,10.64
2023-03-22T06:37:42.374Z,10.64
2023-03-22T06:38:42.335Z,10.71
2023-03-22T06:39:42.317Z,10.68
2023-03-22T06:40:42.514Z,10.71
2023-03-22T06:41:42.314Z,10.66
2023-03-22T06:42:42.273Z,10.67
2023-03-22T06:43:42.373Z,10.64
2023-03-22T06:44:42.285Z,10.66
2023-03-22T06:45:42.330Z,10.66
2023-03-22T06:46:42.238Z,10.70
2023-03-22T06:47:42.245Z,10.71
2023-03-22T06:48:42.198Z,10.76
2023-03-22T06:49:42.179Z,10.76
2023-03-22T06:50:44.155Z,10.74
2023-03-22T06:51:42.159Z,10.81
2023-03-22T06:52:42.192Z,10.91
2023-03-22T06:53:42.166Z,10.86
2023-03-22T06:54:42.133Z,10.89
2023-03-22T06:55:42.154Z,10.94
2023-03-22T06:56:42.139Z,10.99
2023-03-22T06:57:42.106Z,11.07
2023-03-22T06:58:42.154Z,11.11
2023-03-22T06:59:42.124Z,11.11
2023-03-22T07:00:42.451Z,11.14
2023-03-22T07:01:42.123Z,11.10
2023-03-22T07:02:42.036Z,11.14
2023-03-22T07:03:42.042Z,11.24
2023-03-22T07:04:42.098Z,11.24
2023-03-22T07:05:42.032Z,11.36
2023-03-22T07:06:42.036Z,11.37
2023-03-22T07:07:41.988Z,11.42
2023-03-22T07:08:42.008Z,11.44
2023-03-22T07:09:41.958Z,11.55
2023-03-22T07:10:42.282Z,11.55
2023-03-22T07:11:41.953Z,11.44
2023-03-22T07:12:41.951Z,11.36
2023-03-22T07:13:41.952Z,11.40
2023-03-22T07:14:41.929Z,11.39
2023-03-22T07:15:41.946Z,11.36
2023-03-22T07:16:41.903Z,11.42
2023-03-22T07:17:41.923Z,11.44
2023-03-22T07:18:41.930Z,11.54
2023-03-22T07:19:41.863Z,11.57
2023-03-22T07:20:42.169Z,11.60
2023-03-22T07:21:41.833Z,11.65
2023-03-22T07:22:41.847Z,11.67
2023-03-22T07:23:41.805Z,11.73
2023-03-22T07:24:53.794Z,11.75
2023-03-22T07:25:41.788Z,11.73
2023-03-22T07:26:41.810Z,11.60
2023-03-22T07:27:41.780Z,11.58
2023-03-22T07:28:41.762Z,11.60
2023-03-22T07:29:41.751Z,11.67
2023-03-22T07:30:42.081Z,11.55
2023-03-22T07:31:41.763Z,11.55
2023-03-22T07:32:41.730Z,11.52
2023-03-22T07:33:41.701Z,11.54
2023-03-22T07:34:41.685Z,11.55
2023-03-22T07:35:41.706Z,11.52
2023-03-22T07:36:41.693Z,11.58
2023-03-22T07:37:41.689Z,11.55
2023-03-22T07:38:41.646Z,11.55
2023-03-22T07:39:41.659Z,11.54
2023-03-22T07:40:41.989Z,11.58
2023-03-22T07:41:41.661Z,11.52
2023-03-22T07:42:41.615Z,11.51
2023-03-22T07:43:53.388Z,11.49
2023-03-22T07:44:41.587Z,11.51
2023-03-22T07:45:41.576Z,11.57
2023-03-22T07:46:41.619Z,11.57
2023-03-22T07:47:41.727Z,11.61
2023-03-22T07:48:41.548Z,11.62
2023-03-22T07:49:41.532Z,11.62
2023-03-22T07:50:41.909Z,11.58
2023-03-22T07:51:41.536Z,11.62
2023-03-22T07:52:41.530Z,11.67
2023-03-22T07:53:41.472Z,11.72
2023-03-22T07:54:41.470Z,11.83
2023-03-22T07:55:41.498Z,11.94
2023-03-22T07:56:41.504Z,11.90
2023-03-22T07:57:41.455Z,11.88
2023-03-22T07:58:41.466Z,11.91
2023-03-22T07:59:41.422Z,12.02
2023-03-22T08:00:41.736Z,12.04
2023-03-22T08:01:41.430Z,12.09
2023-03-22T08:02:41.465Z,12.16
2023-03-22T08:03:41.386Z,12.21
2023-03-22T08:04:41.391Z,12.20
2023-03-22T08:05:42.109Z,12.14
2023-03-22T08:06:41.387Z,12.05
2023-03-22T08:07:41.342Z,12.10
2023-03-22T08:08:41.314Z,12.10
2023-03-22T08:09:41.315Z,12.13
2023-03-22T08:10:41.579Z,12.02
2023-03-22T08:11:41.318Z,12.12
2023-03-22T08:12:41.276Z,12.20
2023-03-22T08:13:41.273Z,12.34
2023-03-22T08:14:41.912Z,12.32
2023-03-22T08:15:41.463Z,12.45
2023-03-22T08:16:41.278Z,12.64
2023-03-22T08:17:41.243Z,12.86
2023-03-22T08:18:43.040Z,12.93
2023-03-22T08:19:41.281Z,12.95
2023-03-22T08:20:41.761Z,13.25
2023-03-22T08:21:41.192Z,14.07
2023-03-22T08:22:41.197Z,14.47
2023-03-22T08:23:42.443Z,14.35
2023-03-22T08:24:41.174Z,13.95
2023-03-22T08:25:41.142Z,13.71
2023-03-22T08:26:41.118Z,13.81
2023-03-22T08:27:41.113Z,14.06
2023-03-22T08:28:41.123Z,14.29
2023-03-22T08:29:41.082Z,14.60
2023-03-22T08:30:41.404Z,15.17
2023-03-22T08:31:41.223Z,15.87
2023-03-22T08:32:41.102Z,16.45
2023-03-22T08:33:41.071Z,16.82
2023-03-22T08:34:41.034Z,15.78
2023-03-22T08:35:41.545Z,16.04
2023-03-22T08:36:41.013Z,16.07
2023-03-22T08:37:41.039Z,16.52
2023-03-22T08:38:41.006Z,17.01
2023-03-22T08:39:41.013Z,17.48
2023-03-22T08:40:41.019Z,16.96
2023-03-22T08:41:40.966Z,17.21
2023-03-22T08:42:40.983Z,17.92
2023-03-22T08:43:41.003Z,17.25
2023-03-22T08:44:40.927Z,16.67
2023-03-22T08:45:41.142Z,16.30
2023-03-22T08:46:40.966Z,15.90
2023-03-22T08:47:40.952Z,15.28
2023-03-22T08:48:40.914Z,15.20
2023-03-22T08:49:40.901Z,15.20
2023-03-22T08:50:40.855Z,15.02
2023-03-22T08:51:40.878Z,14.47
2023-03-22T08:52:40.890Z,13.88
2023-03-22T08:53:40.915Z,13.78
2023-03-22T08:54:40.819Z,13.73
2023-03-22T08:55:41.174Z,13.81
2023-03-22T08:56:40.809Z,13.82
2023-03-22T08:57:40.816Z,13.64
2023-03-22T08:58:40.808Z,13.69
2023-03-22T08:59:40.765Z,13.70
2023-03-22T09:00:48.510Z,13.59
2023-03-22T09:01:40.855Z,13.54
2023-03-22T09:02:40.778Z,13.60
2023-03-22T09:03:40.722Z,13.71
2023-03-22T09:04:40.787Z,13.57
2023-03-22T09:05:41.164Z,13.66
2023-03-22T09:06:40.692Z,13.82
2023-03-22T09:07:40.763Z,13.89
2023-03-22T09:08:40.721Z,13.81
2023-03-22T09:09:40.646Z,14.32
2023-03-22T09:10:40.672Z,14.15
2023-03-22T09:11:40.617Z,14.06
2023-03-22T09:12:40.650Z,13.92
2023-03-22T09:13:40.628Z,14.02
2023-03-22T09:14:40.587Z,14.06
2023-03-22T09:15:40.959Z,14.12
2023-03-22T09:16:40.579Z,15.16
2023-03-22T09:17:40.561Z,15.49
2023-03-22T09:18:40.584Z,15.53
2023-03-22T09:19:40.572Z,15.16
2023-03-22T09:20:40.856Z,15.16
2023-03-22T09:21:40.545Z,15.16
2023-03-22T09:22:40.513Z,15.01
2023-03-22T09:23:40.500Z,15.01
2023-03-22T09:24:40.517Z,15.25
2023-03-22T09:25:40.752Z,15.09
2023-03-22T09:26:40.482Z,15.50
2023-03-22T09:27:40.450Z,15.20
2023-03-22T09:28:40.480Z,15.13
2023-03-22T09:29:40.465Z,15.60
2023-03-22T09:30:40.686Z,15.44
2023-03-22T09:31:40.471Z,15.17
2023-03-22T09:32:40.396Z,16.33
2023-03-22T09:33:40.414Z,16.63
2023-03-22T09:34:40.422Z,16.41
2023-03-22T09:35:40.669Z,15.50
2023-03-22T09:36:40.392Z,14.57
2023-03-22T09:37:40.340Z,14.42
2023-03-22T09:38:40.506Z,14.29
2023-03-22T09:39:40.316Z,14.21
2023-03-22T09:40:40.300Z,14.25
2023-03-22T09:41:40.313Z,14.35
2023-03-22T09:42:40.285Z,14.29
2023-03-22T09:43:40.307Z,14.28
2023-03-22T09:44:40.278Z,14.39
2023-03-22T09:45:40.540Z,14.94
2023-03-22T09:46:40.323Z,15.25
2023-03-22T09:47:44.788Z,16.46
2023-03-22T09:48:40.246Z,16.12
2023-03-22T09:49:52.607Z,16.33
2023-03-22T09:50:40.229Z,17.01
2023-03-22T09:51:40.186Z,17.21
2023-03-22T09:52:40.184Z,16.34
2023-03-22T09:53:40.913Z,15.59
2023-03-22T09:54:40.176Z,15.86
2023-03-22T09:55:40.605Z,15.67
2023-03-22T09:56:40.132Z,15.59
2023-03-22T09:57:40.143Z,15.80
2023-03-22T09:58:40.208Z,15.53
2023-03-22T09:59:40.112Z,15.68
2023-03-22T10:00:40.208Z,15.53
2023-03-22T10:01:40.352Z,15.34
2023-03-22T10:02:40.125Z,14.95
2023-03-22T10:03:40.116Z,14.84
2023-03-22T10:04:40.112Z,15.01
2023-03-22T10:05:40.342Z,15.29
2023-03-22T10:06:40.026Z,15.36
2023-03-22T10:07:40.019Z,15.01
2023-03-22T10:08:40.066Z,15.02
2023-03-22T10:09:39.993Z,14.81
2023-03-22T10:10:39.976Z,15.09
2023-03-22T10:11:39.960Z,16.57
2023-03-22T10:12:40.027Z,16.25
2023-03-22T10:13:39.980Z,15.57
2023-03-22T10:14:39.962Z,16.30
2023-03-22T10:15:40.170Z,17.11
2023-03-22T10:16:39.922Z,16.83
2023-03-22T10:17:39.897Z,16.39
2023-03-22T10:18:39.904Z,16.91
2023-03-22T10:19:39.893Z,17.72
2023-03-22T10:20:39.895Z,16.68
2023-03-22T10:21:39.874Z,16.38
2023-03-22T10:22:39.870Z,16.70
2023-03-22T10:23:40.879Z,16.96
2023-03-22T10:24:39.826Z,17.38
2023-03-22T10:25:40.160Z,17.48
2023-03-22T10:26:39.818Z,17.52
2023-03-22T10:27:39.783Z,17.12
2023-03-22T10:28:39.819Z,16.57
2023-03-22T10:29:39.761Z,16.15
2023-03-22T10:30:40.097Z,16.05
2023-03-22T10:31:39.786Z,15.87
2023-03-22T10:32:51.258Z,15.84
2023-03-22T10:33:39.754Z,15.62
2023-03-22T10:34:39.799Z,15.69
2023-03-22T10:35:40.115Z,15.64
2023-03-22T10:36:39.694Z,15.62
2023-03-22T10:37:39.677Z,15.56
2023-03-22T10:38:39.734Z,15.47
2023-03-22T10:39:40.137Z,15.14
2023-03-22T10:40:39.663Z,15.16
2023-03-22T10:41:39.635Z,15.31
2023-03-22T10:42:39.650Z,15.65
2023-03-22T10:43:39.619Z,15.76
2023-03-22T10:44:39.647Z,15.86
2023-03-22T10:45:39.854Z,15.82
2023-03-22T10:46:39.681Z,15.47
2023-03-22T10:47:39.597Z,15.28
2023-03-22T10:48:39.628Z,15.38
2023-03-22T10:49:39.582Z,15.29
2023-03-22T10:50:39.559Z,15.19
2023-03-22T10:51:39.531Z,15.29
2023-03-22T10:52:39.578Z,15.49
2023-03-22T10:53:39.526Z,15.59
2023-03-22T10:54:39.494Z,15.83
2023-03-22T10:55:39.854Z,15.92
2023-03-22T10:56:39.528Z,15.47
2023-03-22T10:57:39.472Z,15.44
2023-03-22T10:58:39.609Z,15.43
2023-03-22T10:59:39.472Z,15.44
2023-03-22T11:00:42.306Z,15.76
2023-03-22T11:01:39.599Z,15.82
2023-03-22T11:02:39.513Z,16.38
2023-03-22T11:03:39.427Z,17.11
2023-03-22T11:04:39.405Z,16.58
2023-03-22T11:05:39.726Z,16.30
2023-03-22T11:06:39.363Z,16.60
2023-03-22T11:07:39.360Z,16.41
2023-03-22T11:08:39.365Z,16.30
2023-03-22T11:09:39.327Z,16.23
2023-03-22T11:10:39.354Z,16.04
2023-03-22T11:11:39.329Z,15.84
2023-03-22T11:12:40.152Z,15.46
2023-03-22T11:13:39.318Z,15.13
2023-03-22T11:14:39.338Z,15.06
2023-03-22T11:15:39.555Z,15.13
2023-03-22T11:16:39.282Z,15.20
2023-03-22T11:17:39.254Z,15.17
2023-03-22T11:18:39.253Z,14.96
2023-03-22T11:19:39.230Z,14.92
2023-03-22T11:20:39.733Z,14.91
2023-03-22T11:21:39.201Z,14.88
2023-03-22T11:22:39.212Z,14.88
2023-03-22T11:23:39.196Z,14.96
2023-03-22T11:24:39.167Z,14.94
2023-03-22T11:25:39.178Z,14.64
2023-03-22T11:26:41.529Z,14.77
2023-03-22T11:27:39.152Z,14.80
2023-03-22T11:28:39.240Z,14.72
2023-03-22T11:29:39.112Z,14.84
2023-03-22T11:30:39.623Z,15.13
2023-03-22T11:31:39.110Z,15.28
2023-03-22T11:32:39.130Z,15.44
2023-03-22T11:33:39.070Z,15.36
2023-03-22T11:34:39.123Z,15.16
2023-03-22T11:35:39.107Z,15.01
2023-03-22T11:36:39.053Z,15.07
2023-03-22T11:37:39.050Z,15.38
2023-03-22T11:38:39.015Z,15.74
2023-03-22T11:39:39.072Z,15.89
2023-03-22T11:40:39.311Z,16.02
2023-03-22T11:41:39.020Z,15.87
2023-03-22T11:42:38.970Z,16.25
2023-03-22T11:43:38.976Z,16.45
2023-03-22T11:44:38.985Z,16.25
2023-03-22T11:45:38.993Z,16.12
2023-03-22T11:46:38.964Z,15.90
2023-03-22T11:47:38.981Z,15.89
2023-03-22T11:48:38.983Z,16.33
2023-03-22T11:49:38.904Z,16.76
2023-03-22T11:50:39.387Z,17.12
2023-03-22T11:51:38.910Z,17.28
2023-03-22T11:52:38.895Z,17.31
2023-03-22T11:53:38.867Z,17.49
2023-03-22T11:54:38.851Z,18.12
2023-03-22T11:55:39.260Z,18.35
2023-03-22T11:56:38.889Z,18.39
2023-03-22T11:57:38.852Z,18.21
2023-03-22T11:58:38.820Z,17.64
2023-03-22T11:59:38.850Z,17.72
2023-03-22T12:00:38.772Z,18.03
2023-03-22T12:01:38.797Z,17.68
2023-03-22T12:02:38.956Z,17.12
2023-03-22T12:03:39.681Z,17.16
2023-03-22T12:04:38.825Z,17.55
2023-03-22T12:05:39.216Z,17.40
2023-03-22T12:06:38.706Z,17.37
2023-03-22T12:07:38.930Z,17.56
2023-03-22T12:08:38.702Z,17.64
2023-03-22T12:09:38.703Z,17.62
2023-03-22T12:10:38.764Z,17.44
2023-03-22T12:11:38.654Z,17.00
2023-03-22T12:12:38.643Z,16.81
2023-03-22T12:13:38.643Z,16.57
2023-03-22T12:14:38.634Z,16.60
2023-03-22T12:15:38.706Z,16.53
2023-03-22T12:16:38.634Z,16.64
2023-03-22T12:17:38.628Z,16.48
2023-03-22T12:18:38.582Z,16.24
2023-03-22T12:19:38.587Z,16.27
2023-03-22T12:20:38.918Z,16.07
2023-03-22T12:21:38.598Z,15.93
2023-03-22T12:22:38.539Z,15.89
2023-03-22T12:23:38.564Z,15.84
2023-03-22T12:24:38.532Z,15.93
2023-03-22T12:25:38.851Z,15.96
2023-03-22T12:26:38.494Z,15.97
2023-03-22T12:27:38.527Z,15.83
2023-03-22T12:28:38.495Z,15.76
2023-03-22T12:29:38.496Z,15.59
2023-03-22T12:30:38.467Z,15.57
2023-03-22T12:31:38.548Z,15.38
2023-03-22T12:32:38.498Z,15.34
2023-03-22T12:33:38.446Z,15.38
2023-03-22T12:34:38.480Z,15.39
2023-03-22T12:35:38.612Z,15.38
2023-03-22T12:36:38.424Z,15.31
2023-03-22T12:37:38.387Z,15.38
2023-03-22T12:38:38.396Z,15.39
2023-03-22T12:39:38.389Z,15.49
2023-03-22T12:40:38.609Z,15.53
2023-03-22T12:41:38.345Z,15.51
2023-03-22T12:42:47.899Z,15.56
2023-03-22T12:43:38.323Z,15.53
2023-03-22T12:44:38.382Z,15.41
2023-03-22T12:45:38.434Z,15.46
2023-03-22T12:46:38.335Z,15.39
2023-03-22T12:47:38.395Z,15.28
2023-03-22T12:48:38.465Z,15.21
2023-03-22T12:49:38.270Z,15.09
2023-03-22T12:50:38.552Z,14.99
2023-03-22T12:51:38.229Z,14.91
2023-03-22T12:52:45.475Z,14.78
2023-03-22T12:53:38.260Z,14.80
2023-03-22T12:54:38.224Z,14.81
2023-03-22T12:55:38.267Z,14.78
2023-03-22T12:56:38.221Z,14.78
2023-03-22T12:57:38.164Z,14.61
2023-03-22T12:58:38.176Z,14.58
2023-03-22T12:59:38.190Z,14.64
2023-03-22T13:00:38.414Z,14.64
2023-03-22T13:01:38.318Z,14.69
2023-03-22T13:02:38.314Z,14.75
2023-03-22T13:03:38.236Z,14.73
2023-03-22T13:04:38.118Z,14.55
2023-03-22T13:05:38.341Z,14.51
2023-03-22T13:06:38.065Z,14.39
2023-03-22T13:07:38.080Z,14.18
2023-03-22T13:08:38.096Z,14.14
2023-03-22T13:09:38.084Z,14.14
2023-03-22T13:10:38.121Z,14.17
2023-03-22T13:11:38.022Z,14.04
2023-03-22T13:12:38.001Z,13.96
2023-03-22T13:13:38.005Z,14.00
2023-03-22T13:14:37.985Z,13.99
2023-03-22T13:15:42.312Z,14.00
2023-03-22T13:16:38.002Z,14.04
2023-03-22T13:17:38.121Z,14.07
2023-03-22T13:18:37.990Z,14.17
2023-03-22T13:19:37.980Z,14.25
2023-03-22T13:20:38.202Z,14.33
2023-03-22T13:21:38.018Z,14.28
2023-03-22T13:22:38.122Z,14.22
2023-03-22T13:23:37.889Z,14.29
2023-03-22T13:24:37.901Z,14.36
2023-03-22T13:25:38.141Z,14.46
2023-03-22T13:26:37.860Z,14.50
2023-03-22T13:27:37.921Z,14.64
2023-03-22T13:28:37.858Z,14.68
2023-03-22T13:29:37.912Z,14.65
2023-03-22T13:30:37.853Z,14.72
2023-03-22T13:31:37.865Z,14.88
2023-03-22T13:32:37.873Z,14.83
2023-03-22T13:33:37.805Z,14.84
2023-03-22T13:34:37.760Z,14.73
2023-03-22T13:35:38.218Z,14.62
2023-03-22T13:36:37.754Z,14.70
2023-03-22T13:37:37.759Z,14.77
2023-03-22T13:38:37.738Z,14.81
2023-03-22T13:39:37.706Z,14.75
2023-03-22T13:40:37.910Z,14.69
2023-03-22T13:41:37.739Z,14.65
2023-03-22T13:42:37.691Z,14.64
2023-03-22T13:43:37.664Z,14.68
2023-03-22T13:44:37.656Z,14.54
2023-03-22T13:45:37.688Z,14.46
2023-03-22T13:46:37.749Z,14.35
2023-03-22T13:47:37.665Z,14.37
2023-03-22T13:48:37.737Z,14.39
2023-03-22T13:49:37.624Z,14.27
2023-03-22T13:50:37.602Z,14.25
2023-03-22T13:51:37.591Z,14.24
2023-03-22T13:52:38.513Z,14.25
2023-03-22T13:53:37.585Z,14.21
2023-03-22T13:54:37.538Z,14.15
2023-03-22T13:55:37.593Z,14.09
2023-03-22T13:56:37.552Z,14.04
2023-03-22T13:57:37.526Z,14.03
2023-03-22T13:58:37.546Z,13.97
2023-03-22T13:59:37.507Z,14.02
2023-03-22T14:00:37.518Z,13.99
2023-03-22T14:01:37.588Z,14.00
2023-03-22T14:02:37.600Z,13.99
2023-03-22T14:03:37.674Z,13.92
2023-03-22T14:04:37.490Z,13.91
2023-03-22T14:05:37.427Z,13.95
2023-03-22T14:06:37.432Z,13.92
2023-03-22T14:07:37.437Z,13.88
2023-03-22T14:08:37.381Z,13.87
2023-03-22T14:09:37.404Z,13.84
2023-03-22T14:10:37.380Z,13.85
2023-03-22T14:11:37.399Z,13.79
2023-03-22T14:12:37.345Z,13.81
2023-03-22T14:13:37.329Z,13.82
2023-03-22T14:14:37.341Z,13.84
2023-03-22T14:15:37.347Z,13.91
2023-03-22T14:16:37.308Z,13.79
2023-03-22T14:17:37.322Z,13.84
2023-03-22T14:18:37.270Z,13.85
2023-03-22T14:19:37.292Z,13.84
2023-03-22T14:20:37.251Z,13.87
2023-03-22T14:21:37.261Z,13.89
2023-03-22T14:52:16.229Z,14.77
2023-03-22T14:53:17.332Z,14.65
2023-03-22T14:54:17.321Z,14.52
2023-03-22T14:55:17.201Z,14.36
2023-03-22T14:56:17.171Z,14.29
2023-03-22T14:57:19.233Z,14.24
2023-03-22T14:58:17.144Z,14.18
2023-03-22T14:59:17.139Z,14.09
2023-03-22T15:00:17.145Z,14.14
2023-03-22T15:01:17.130Z,14.18
2023-03-22T15:02:17.113Z,14.20
2023-03-22T15:03:17.209Z,14.14
2023-03-22T15:04:17.086Z,14.12
2023-03-22T15:05:17.075Z,14.07
2023-03-22T15:06:17.078Z,13.95
2023-03-22T15:07:17.075Z,13.96
2023-03-22T15:08:17.041Z,13.96
2023-03-22T15:09:17.035Z,13.89
2023-03-22T15:10:17.023Z,13.87
2023-03-22T15:11:17.034Z,13.88
2023-03-22T15:12:16.991Z,13.89
2023-03-22T15:13:16.999Z,13.91
2023-03-22T15:14:16.978Z,13.88
2023-03-22T15:15:16.988Z,13.99
2023-03-22T15:16:17.002Z,14.00
2023-03-22T15:17:16.971Z,13.95
2023-03-22T15:18:16.933Z,13.96
2023-03-22T15:19:16.925Z,13.96
2023-03-22T15:20:16.908Z,13.95
2023-03-22T15:21:16.909Z,13.99
2023-03-22T15:22:16.909Z,13.97
2023-03-22T15:23:16.882Z,13.88
2023-03-22T15:24:16.885Z,13.92
2023-03-22T15:25:16.864Z,13.95
2023-03-22T15:26:16.884Z,13.91
2023-03-22T15:27:16.883Z,13.96
2023-03-22T15:28:16.830Z,13.97
2023-03-22T15:29:16.833Z,13.95
2023-03-22T15:30:16.810Z,13.96
2023-03-22T15:31:16.832Z,13.92
2023-03-22T15:32:16.816Z,13.92
2023-03-22T15:33:16.769Z,13.88
2023-03-22T15:34:16.823Z,13.88
2023-03-22T15:35:16.752Z,13.87
2023-03-22T15:36:16.795Z,13.87
2023-03-22T15:37:16.731Z,13.79
2023-03-22T15:38:20.103Z,13.79
2023-03-22T15:39:16.730Z,13.78
2023-03-22T15:40:16.713Z,13.78
2023-03-22T15:41:16.741Z,13.69
2023-03-22T15:42:16.692Z,13.69
2023-03-22T15:43:16.699Z,13.69
2023-03-22T15:44:16.668Z,13.64
2023-03-22T15:45:16.666Z,13.62
2023-03-22T15:46:16.712Z,13.57
2023-03-22T15:47:16.631Z,13.59
2023-03-22T15:48:16.655Z,13.54
2023-03-22T15:49:16.615Z,13.51
2023-03-22T15:50:16.594Z,13.49
2023-03-22T15:51:16.597Z,13.48
2023-03-22T15:52:16.594Z,13.48
2023-03-22T15:53:16.601Z,13.46
2023-03-22T15:54:16.558Z,13.45
2023-03-22T15:55:16.576Z,13.45
2023-03-22T15:56:16.545Z,13.45
2023-03-22T15:57:16.540Z,13.46
2023-03-22T15:58:16.510Z,13.45
2023-03-22T15:59:16.504Z,13.46
2023-03-22T16:00:16.486Z,13.42
2023-03-22T16:01:16.534Z,13.42
2023-03-22T16:02:16.462Z,13.33
2023-03-22T16:03:16.494Z,13.33
2023-03-22T16:04:16.441Z,13.30
2023-03-22T16:05:16.478Z,13.33
2023-03-22T16:06:16.477Z,13.30
2023-03-22T16:07:16.451Z,13.33
2023-03-22T16:08:16.457Z,13.36
2023-03-22T16:09:16.400Z,13.33
2023-03-22T16:10:16.380Z,13.38
2023-03-22T16:11:16.382Z,13.36
2023-03-22T16:12:16.357Z,13.33
2023-03-22T16:13:16.382Z,13.32
2023-03-22T16:14:16.352Z,13.33
2023-03-22T16:15:16.357Z,13.33
2023-03-22T16:16:16.396Z,13.33
2023-03-22T16:17:16.322Z,13.32
2023-03-22T16:18:16.306Z,13.36
2023-03-22T16:19:16.319Z,13.41
2023-03-22T16:20:16.302Z,13.42
2023-03-22T16:21:16.304Z,13.39
2023-03-22T16:22:16.267Z,13.44
2023-03-22T16:23:16.249Z,13.41
2023-03-22T16:24:16.234Z,13.41
2023-03-22T16:25:16.229Z,13.39
2023-03-22T16:26:16.232Z,13.38
2023-03-22T16:27:16.214Z,13.29
2023-03-22T16:28:16.218Z,13.32
2023-03-22T16:29:16.205Z,13.29
2023-03-22T16:30:16.179Z,13.30
2023-03-22T16:31:16.237Z,13.32
2023-03-22T16:32:16.186Z,13.22
2023-03-22T16:33:16.172Z,13.23
2023-03-22T16:34:16.141Z,13.23
2023-03-22T16:35:16.131Z,13.23
2023-03-22T16:36:16.138Z,13.25
2023-03-22T16:37:16.116Z,13.23
2023-03-22T16:38:16.117Z,13.19
2023-03-22T16:39:16.089Z,13.22
2023-03-22T16:40:16.072Z,13.23
2023-03-22T16:41:16.078Z,13.17
2023-03-22T16:42:16.069Z,13.17
2023-03-22T16:43:16.086Z,13.19
2023-03-22T16:44:16.022Z,13.15
2023-03-22T16:45:16.062Z,13.22
2023-03-22T16:46:16.020Z,13.17
2023-03-22T16:47:15.995Z,13.20
2023-03-22T16:48:16.001Z,13.19
2023-03-22T16:49:15.987Z,13.17
2023-03-22T16:50:15.965Z,13.12
2023-03-22T16:51:15.965Z,13.12
2023-03-22T16:52:15.968Z,13.12
2023-03-22T16:53:16.048Z,13.15
2023-03-22T16:54:15.925Z,13.08
2023-03-22T16:55:15.919Z,13.07
2023-03-22T16:56:15.919Z,13.03
2023-03-22T16:57:15.964Z,13.04
2023-03-22T16:58:15.875Z,13.03
2023-03-22T16:59:15.870Z,13.01
2023-03-22T17:00:15.854Z,13.01
2023-03-22T17:01:15.881Z,13.01
2023-03-22T17:02:15.971Z,13.03
2023-03-22T17:03:15.840Z,13.00
2023-03-22T17:04:15.824Z,13.03
2023-03-22T17:05:15.809Z,13.00
2023-03-22T17:06:15.813Z,12.96
2023-03-22T17:07:15.850Z,12.95
2023-03-22T17:08:15.816Z,12.93
2023-03-22T17:09:15.790Z,12.95
2023-03-22T17:10:15.805Z,12.93
2023-03-22T17:11:15.818Z,12.93
2023-03-22T17:12:15.780Z,12.96
2023-03-22T17:13:15.767Z,12.96
2023-03-22T17:14:15.717Z,12.95
2023-03-22T17:15:15.723Z,12.96
2023-03-22T17:16:15.735Z,12.96
2023-03-22T17:17:15.700Z,12.97
2023-03-22T17:18:15.706Z,12.96
2023-03-22T17:19:15.683Z,12.95
2023-03-22T17:20:15.660Z,12.92
2023-03-22T17:21:15.673Z,12.89
2023-03-22T17:22:15.641Z,12.89
2023-03-22T17:23:15.741Z,12.89
2023-03-22T17:24:15.611Z,12.87
2023-03-22T17:25:15.614Z,12.83
2023-03-22T17:26:15.591Z,12.90
2023-03-22T17:27:15.587Z,12.92
2023-03-22T17:28:15.590Z,12.92
2023-03-22T17:29:15.588Z,12.92
2023-03-22T17:30:15.553Z,12.90
2023-03-22T17:31:15.586Z,12.93
2023-03-22T17:32:20.265Z,12.95
2023-03-22T17:33:15.612Z,12.92
2023-03-22T17:34:15.536Z,12.89
2023-03-22T17:35:15.504Z,12.93
2023-03-22T17:36:15.564Z,12.93
2023-03-22T17:37:15.482Z,12.95
2023-03-22T17:38:15.523Z,12.89
2023-03-22T17:39:31.031Z,12.89
2023-03-22T17:40:32.084Z,12.86
2023-03-22T17:41:15.450Z,12.86
2023-03-22T17:42:15.458Z,12.86
2023-03-22T17:43:15.433Z,12.86
2023-03-22T17:44:15.420Z,12.86
2023-03-22T17:45:15.437Z,12.79
2023-03-22T17:46:57.355Z,12.68
2023-03-22T17:48:15.394Z,12.60
2023-03-22T17:49:15.367Z,12.59
2023-03-22T17:50:15.353Z,12.59
2023-03-22T17:51:15.350Z,12.56
2023-03-22T17:52:15.528Z,12.50
2023-03-22T17:53:30.111Z,12.46
2023-03-22T17:54:43.058Z,12.45
2023-03-22T17:55:23.070Z,12.45
2023-03-22T17:56:54.643Z,12.41
2023-03-22T17:58:35.043Z,12.32
2023-03-22T17:59:15.243Z,12.32
2023-03-22T18:00:15.251Z,12.31
2023-03-22T18:01:15.233Z,12.34
2023-03-22T18:02:22.031Z,12.37
2023-03-22T18:03:15.238Z,12.37
2023-03-22T18:04:15.218Z,12.37
2023-03-22T18:05:15.695Z,12.32
2023-03-22T18:06:15.184Z,12.35
2023-03-22T18:07:15.182Z,12.38
2023-03-22T18:08:27.868Z,12.46
2023-03-22T18:09:15.192Z,12.46
2023-03-22T18:10:15.137Z,12.41
2023-03-22T18:11:15.199Z,12.41
2023-03-22T18:12:15.133Z,12.37
2023-03-22T18:13:15.128Z,12.35
2023-03-22T18:14:24.811Z,12.35
2023-03-22T18:15:15.103Z,12.34
2023-03-22T18:16:15.122Z,12.31
2023-03-22T18:17:15.158Z,12.35
2023-03-22T18:18:15.061Z,12.37
2023-03-22T18:19:15.069Z,12.37
2023-03-22T18:20:29.257Z,12.38
2023-03-22T18:21:15.036Z,12.37
2023-03-22T18:22:15.037Z,12.37
2023-03-22T18:23:14.993Z,12.31
2023-03-22T18:24:15.015Z,12.37
2023-03-22T18:25:15.008Z,12.37
2023-03-22T18:26:27.354Z,12.45
2023-03-22T18:27:15.882Z,12.45
2023-03-22T18:28:14.929Z,12.46
2023-03-22T18:29:14.942Z,12.41
2023-03-22T18:30:14.917Z,12.50
2023-03-22T18:31:14.945Z,12.54
2023-03-22T18:32:18.523Z,12.57
2023-03-22T18:33:14.897Z,12.56
2023-03-22T18:34:14.930Z,12.52
2023-03-22T18:35:14.894Z,12.47
2023-03-22T18:36:14.938Z,12.50
2023-03-22T18:37:14.911Z,12.49
2023-03-22T18:38:24.548Z,12.47
2023-03-22T18:39:56.258Z,12.47
2023-03-22T18:42:21.813Z,12.52
2023-03-22T18:43:14.816Z,12.53
2023-03-22T18:44:14.795Z,12.59
2023-03-22T18:45:16.018Z,12.60
2023-03-22T18:46:19.241Z,12.57
2023-03-22T18:47:14.796Z,12.57
2023-03-22T18:48:14.751Z,12.56
2023-03-22T18:49:14.763Z,12.50
2023-03-22T18:50:14.732Z,12.50
2023-03-22T18:51:14.697Z,12.52
2023-03-22T18:52:39.920Z,12.54
2023-03-22T18:53:18.637Z,12.57
2023-03-22T18:54:14.690Z,12.57
2023-03-22T18:55:28.858Z,12.60
2023-03-22T18:57:16.348Z,12.57
2023-03-22T18:58:14.668Z,12.57
2023-03-22T18:59:14.617Z,12.60
2023-03-22T19:00:14.627Z,12.64
2023-03-22T19:01:14.818Z,12.57
2023-03-22T19:02:20.631Z,12.53
2023-03-22T19:03:14.595Z,12.52
2023-03-22T19:04:14.563Z,12.49
2023-03-22T19:05:14.559Z,12.49
2023-03-22T19:06:14.584Z,12.53
2023-03-22T19:07:20.289Z,12.56
2023-03-22T19:08:25.908Z,12.54
2023-03-22T19:09:14.586Z,12.59
2023-03-22T19:10:14.538Z,12.62
2023-03-22T19:11:14.608Z,12.60
2023-03-22T19:12:14.484Z,12.62
2023-03-22T19:13:14.479Z,12.60